Latest Weather Observations for Essendon Airport

IDV60801

Issued at 11:02 am EDT Wednesday 10 February 2016 (issued every 30 minutes, with the page automatically refreshed every 10 minutes)

About weather observations | Map of weather stations | Latest weather observations for VIC | Other Formats
Station Details ID: 086038 Name: ESSENDON AIRPORT Lat: -37.73 Lon: 144.91 Height: 78.4 m
Data from the previous 72 hours. | See also: Recent months at Essendon Airport
Date/Time
EDT
Temp
°C
App
Temp
°C
Dew
Point
Rel
Hum
%
Delta-T
°C
Wind Press
QNH
hPa
Press
MSL
hPa
Rain
since 9 am
mm
Dir
 
Spd
km/h
Gust
km/h
Spd
kts
Gust
kts
10/11:00am 20.3 20.3 14.2 68 3.5 WSW 7 13 4 7 1016.2 1015.9 0.0
10/10:30am 19.9 19.4 13.8 68 3.5 SSE 9 13 5 7 1016.4 1016.1 0.0
10/10:00am 19.5 19.6 13.9 70 3.2 S 6 11 3 6 1016.4 1016.1 0.0
10/09:30am 19.2 18.7 13.8 71 3.1 SW 9 17 5 9 1016.5 1016.2 0.0
10/09:00am 19.0 18.6 14.1 73 2.8 S 9 11 5 6 1016.5 1016.2 0.0
10/08:30am 18.7 17.4 13.8 73 2.8 SSW 13 17 7 9 1016.3 1016.0 0.0
10/08:00am 18.6 18.2 14.1 75 2.6 SW 9 13 5 7 1015.8 1015.5 0.0
10/07:30am 18.4 17.2 13.9 75 2.6 SSW 13 17 7 9 1015.5 1015.2 0.0
10/07:00am 18.2 17.4 14.1 77 2.4 SW 11 15 6 8 1015.3 1015.0 0.0
10/06:53am 18.2 17.8 14.1 77 2.4 SW 9 15 5 8 1015.3 1015.0 0.0
10/06:30am 18.2 17.4 14.1 77 2.4 SSW 11 19 6 10 1015.0 1014.8 0.0
10/06:00am 18.1 18.6 14.0 77 2.4 SW 4 9 2 5 1014.7 1014.5 0.0
10/05:30am 18.0 17.7 14.3 79 2.1 SW 9 11 5 6 1014.9 1014.7 0.0
10/05:00am 17.9 16.8 14.4 80 2.0 WSW 13 17 7 9 1015.0 1014.8 0.0
10/04:30am 17.9 16.8 14.4 80 2.0 SW 13 17 7 9 1015.3 1015.0 0.0
10/04:00am 17.9 17.0 14.8 82 1.8 WSW 13 17 7 9 1015.4 1015.1 0.0
10/03:30am 17.9 17.0 14.8 82 1.8 SW 13 17 7 9 1015.4 1015.1 0.0
10/03:00am 17.9 17.0 14.8 82 1.8 SW 13 19 7 10 1015.6 1015.3 0.0
10/02:30am 18.2 16.9 14.9 81 1.9 SW 15 17 8 9 1015.8 1015.5 0.0
10/02:00am 18.4 17.5 14.9 80 2.0 SW 13 19 7 10 1016.2 1015.9 0.0
10/01:30am 18.3 17.6 15.4 83 1.7 SSW 13 15 7 8 1016.3 1016.0 0.0
10/01:02am 18.1 17.4 15.5 85 1.5 SSW 13 17 7 9 1016.7 1016.4 0.0
10/01:00am 18.1 17.4 15.5 85 1.5 SSW 13 17 7 9 1016.7 1016.4 0.0
10/12:40am 17.5 17.0 15.0 85 1.5 SSW 11 13 6 7 1016.7 1016.4 0.0
10/12:30am 17.6 17.1 15.0 85 1.5 SSW 11 13 6 7 1016.8 1016.5 0.0
10/12:02am 18.1 18.2 15.4 84 1.6 S 9 13 5 7 1016.8 1016.5 0.0
10/12:00am 18.2 17.9 15.5 84 1.6 S 11 13 6 7 1016.8 1016.5 0.0
 
Date/Time
EDT
Temp
°C
App
Temp
°C
Dew
Point
Rel
Hum
%
Delta-T
°C
Wind Press
QNH
hPa
Press
MSL
hPa
Rain
since 9 am
mm
Dir
 
Spd
km/h
Gust
km/h
Spd
kts
Gust
kts
09/11:30pm 18.3 17.5 15.0 81 1.9 S 13 15 7 8 1017.2 1016.9 0.0
09/11:00pm 18.1 17.7 15.2 83 1.7 SSW 11 11 6 6 1017.3 1017.0 0.0
09/10:30pm 18.2 17.4 15.1 82 1.8 SW 13 15 7 8 1017.5 1017.2 0.0
09/10:00pm 18.6 17.9 15.3 81 1.9 SW 13 15 7 8 1017.5 1017.2 0.0
09/09:30pm 19.2 17.9 15.7 80 2.1 SW 17 20 9 11 1017.3 1017.0 0.0
09/09:00pm 19.5 17.5 15.6 78 2.3 SW 20 26 11 14 1017.3 1017.0 0.0
09/08:30pm 19.9 17.8 15.3 75 2.7 SSW 20 26 11 14 1017.2 1016.9 0.0
09/08:00pm 20.3 17.8 15.1 72 3.1 SSW 22 26 12 14 1017.3 1017.0 0.0
09/07:30pm 20.8 17.4 14.7 68 3.6 SSW 26 32 14 17 1017.2 1016.9 0.0
09/07:00pm 21.3 18.3 14.7 66 3.9 SSW 24 32 13 17 1017.1 1016.8 0.0
09/06:30pm 22.3 19.6 14.7 62 4.5 S 22 32 12 17 1016.9 1016.6 0.0
09/06:00pm 22.4 19.5 14.0 59 4.9 S 22 30 12 16 1016.9 1016.6 0.0
09/05:30pm 23.1 20.1 13.8 55 5.4 S 22 30 12 16 1017.1 1016.8 0.0
09/05:00pm 23.9 21.6 14.6 56 5.5 S 20 28 11 15 1017.5 1017.2 0.0
09/04:30pm 23.8 21.2 13.9 54 5.8 S 20 28 11 15 1017.8 1017.5 0.0
09/04:00pm 23.8 21.2 13.9 54 5.8 S 20 32 11 17 1018.0 1017.7 0.0
09/03:30pm 23.8 21.5 14.2 55 5.7 SSW 19 30 10 16 1018.4 1018.1 0.0
09/03:00pm 23.9 21.5 13.7 53 6.0 S 19 32 10 17 1018.7 1018.5 0.0
09/02:30pm 23.7 21.2 13.6 53 5.9 S 19 26 10 14 1019.1 1018.9 0.0
09/02:00pm 23.7 21.9 13.3 52 6.0 S 15 26 8 14 1019.4 1019.2 0.0
09/01:30pm 22.7 20.4 12.9 54 5.6 S 17 28 9 15 1019.7 1019.5 0.0
09/01:00pm 22.3 19.9 12.5 53 5.6 S 17 24 9 13 1020.0 1019.8 0.0
09/12:30pm 21.4 19.3 12.5 57 5.1 SSW 15 24 8 13 1020.3 1020.1 0.0
09/12:00pm 21.6 20.3 12.5 56 5.2 S 11 19 6 10 1020.8 1020.6 0.0
09/11:30am 20.8 19.1 12.5 59 4.7 SSE 13 17 7 9 1021.1 1020.9 0.0
09/11:00am 20.8 18.8 12.8 60 4.5 S 15 24 8 13 1021.3 1021.1 0.0
09/10:30am 19.9 17.3 11.9 60 4.5 S 17 26 9 14 1021.4 1021.2 0.0
09/10:00am 20.0 18.6 12.3 61 4.3 S 11 20 6 11 1021.6 1021.4 0.0
09/09:30am 19.7 17.8 12.9 65 3.9 S 15 19 8 10 1021.7 1021.5 0.0
09/09:00am 19.0 17.3 12.3 65 3.7 SE 13 19 7 10 1021.9 1021.7 0.0
09/08:30am 18.4 16.9 11.9 66 3.6 SSE 11 17 6 9 1021.9 1021.7 0.0
09/08:00am 17.4 16.2 11.7 69 3.1 ESE 9 15 5 8 1021.9 1021.7 0.0
09/07:30am 17.1 15.8 11.4 69 3.1 ESE 9 13 5 7 1021.7 1021.5 0.0
09/07:00am 16.8 14.7 11.3 70 3.0 SE 13 17 7 9 1021.5 1021.3 0.0
09/06:30am 17.1 14.4 11.6 70 3.0 SSE 17 20 9 11 1021.4 1021.2 0.0
09/06:00am 17.3 15.5 12.2 72 2.8 SE 13 19 7 10 1021.3 1021.1 0.0
09/05:30am 17.4 15.7 12.3 72 2.8 S 13 19 7 10 1021.2 1021.0 0.0
09/05:00am 17.4 15.3 12.3 72 2.8 S 15 20 8 11 1021.1 1020.9 0.0
09/04:30am 17.5 15.3 12.2 71 2.9 SE 15 20 8 11 1021.1 1020.9 0.0
09/04:00am 17.7 16.0 12.4 71 2.9 SE 13 19 7 10 1021.2 1021.0 0.0
09/03:30am 17.8 15.7 12.3 70 3.1 SE 15 19 8 10 1021.3 1021.1 0.0
09/03:00am 17.8 15.4 12.5 71 2.9 SSE 17 22 9 12 1021.4 1021.2 0.0
09/02:30am 18.2 15.9 12.9 71 3.0 SSE 17 24 9 13 1021.5 1021.3 0.0
09/02:00am 18.2 17.1 13.1 72 2.9 SSE 11 15 6 8 1021.7 1021.5 0.0
09/01:30am 18.0 16.4 12.7 71 3.0 SSE 13 17 7 9 1022.0 1021.8 0.0
09/01:00am 18.0 15.9 12.5 70 3.1 SSE 15 22 8 12 1022.4 1022.2 0.0
09/12:30am 18.5 16.2 13.1 71 3.1 SSE 17 24 9 13 1022.6 1022.4 0.0
09/12:00am 18.4 15.8 13.1 71 3.0 SSE 19 28 10 15 1022.7 1022.5 0.0
 
Date/Time
EDT
Temp
°C
App
Temp
°C
Dew
Point
Rel
Hum
%
Delta-T
°C
Wind Press
QNH
hPa
Press
MSL
hPa
Rain
since 9 am
mm
Dir
 
Spd
km/h
Gust
km/h
Spd
kts
Gust
kts
08/11:30pm 18.8 16.3 13.6 72 3.0 S 19 30 10 16 1022.9 1022.7 0.0
08/11:00pm 18.7 15.1 12.9 69 3.3 S 24 32 13 17 1023.0 1022.8 0.0
08/10:30pm 18.5 16.0 13.4 72 2.9 S 19 24 10 13 1023.0 1022.8 0.0
08/10:00pm 18.8 15.8 13.6 72 3.0 S 22 30 12 16 1023.0 1022.8 0.0
08/09:30pm 18.9 16.0 14.0 73 2.8 SSW 22 32 12 17 1022.8 1022.6 0.0
08/09:00pm 18.7 15.3 13.8 73 2.8 S 24 32 13 17 1022.4 1022.2 0.0
08/08:30pm 19.0 15.6 13.6 71 3.1 S 24 33 13 18 1022.2 1022.0 0.0
08/08:00pm 19.4 16.4 13.6 69 3.3 S 22 32 12 17 1021.8 1021.6 0.0
08/07:30pm 19.9 16.1 13.6 67 3.6 S 26 32 14 17 1021.6 1021.4 0.0
08/07:00pm 20.6 16.4 13.6 64 4.0 SSW 28 35 15 19 1021.4 1021.2 0.0
08/06:30pm 21.4 18.0 12.5 57 5.1 SSW 22 30 12 16 1021.3 1021.1 0.0
08/06:00pm 22.2 18.7 13.5 57 5.0 S 24 32 13 17 1021.3 1021.1 0.0
08/05:30pm 22.2 18.4 13.5 57 5.0 S 26 32 14 17 1021.2 1021.0 0.0
08/05:00pm 22.2 18.7 13.5 57 5.0 S 24 32 13 17 1021.4 1021.2 0.0
08/04:30pm 22.2 18.1 13.8 59 4.9 S 28 39 15 21 1021.7 1021.5 0.0
08/04:00pm 22.3 18.6 12.8 55 5.4 S 24 32 13 17 1021.7 1021.5 0.0
08/03:30pm 22.2 18.6 13.0 56 5.3 S 24 35 13 19 1021.8 1021.6 0.0
08/03:00pm 23.0 19.9 13.5 55 5.5 S 22 30 12 16 1021.8 1021.6 0.0
08/02:30pm 22.8 19.8 12.4 52 5.9 S 20 28 11 15 1021.9 1021.7 0.0
08/02:00pm 23.1 19.8 12.7 52 6.0 S 22 32 12 17 1022.0 1021.8 0.0
08/01:30pm 22.7 19.7 12.6 53 5.8 S 20 32 11 17 1022.2 1022.0 0.0
08/01:00pm 22.1 20.0 13.5 58 5.0 SSW 17 26 9 14 1022.4 1022.2 0.0
08/12:30pm 21.8 19.6 13.4 59 4.9 SSE 17 22 9 12 1022.6 1022.4 0.0
08/12:00pm 21.3 19.2 13.7 62 4.4 SSW 17 28 9 15 1022.6 1022.4 0.0
08/11:30am 20.5 19.2 13.7 65 3.9 S 13 22 7 12 1022.8 1022.6 0.0
08/11:00am 20.5 18.5 13.9 66 3.8 S 17 24 9 13 1022.8 1022.6 0.0
08/10:30am 20.5 18.2 14.2 67 3.7 S 19 24 10 13 1022.7 1022.5 0.0
08/10:00am 19.8 17.8 14.0 69 3.3 SSW 17 20 9 11 1022.5 1022.3 0.0
08/09:30am 19.5 17.7 14.5 73 2.9 SW 17 22 9 12 1022.4 1022.2 0.0
08/09:00am 19.2 18.1 15.3 78 2.3 WSW 15 17 8 9 1022.2 1022.0 0.0
08/08:30am 19.2 17.9 14.7 75 2.6 SW 15 19 8 10 1021.9 1021.7 0.0
08/08:00am 19.0 17.4 14.9 77 2.4 SSW 17 20 9 11 1021.6 1021.4 0.0
08/07:30am 18.6 17.5 15.3 81 1.9 SW 15 19 8 10 1021.4 1021.2 0.0
08/07:00am 18.0 17.3 15.4 85 1.5 SW 13 17 7 9 1021.3 1021.1 0.0
08/06:30am 18.3 17.8 15.9 86 1.4 SW 13 15 7 8 1021.0 1020.8 0.0
08/06:00am 17.7 17.7 16.2 91 0.9 SW 11 15 6 8 1020.7 1020.5 0.0
08/05:30am 17.1 16.9 15.6 91 0.9 WSW 11 13 6 7 1020.4 1020.2 0.0
08/05:00am 17.0 17.0 15.2 89 1.0 WSW 9 13 5 7 1020.3 1020.1 0.0
08/04:57am 17.0 17.0 15.2 89 1.0 WSW 9 13 5 7 1020.3 1020.1 0.0
08/04:42am 17.3 17.4 15.5 89 1.1 WSW 9 11 5 6 1020.3 1020.1 0.0
08/04:30am 17.4 17.5 15.6 89 1.1 WSW 9 11 5 6 1020.2 1020.0 0.0
08/04:00am 17.7 17.4 15.5 87 1.3 SW 11 15 6 8 1020.2 1020.0 0.0
08/03:30am 18.3 17.7 15.6 84 1.6 SW 13 17 7 9 1020.3 1020.1 0.0
08/03:00am 18.6 17.7 15.8 84 1.7 SW 15 19 8 10 1020.3 1020.1 0.0
08/02:30am 18.6 17.8 16.0 85 1.5 SW 15 20 8 11 1020.6 1020.4 0.0
08/02:00am 18.8 17.6 16.0 84 1.7 SW 17 24 9 13 1020.6 1020.4 0.0
08/01:56am 18.8 17.2 16.0 84 1.7 SW 19 26 10 14 1020.6 1020.4 0.0
08/01:30am 18.8 17.3 16.2 85 1.6 SW 19 24 10 13 1020.6 1020.4 0.0
08/01:00am 19.0 17.4 16.6 86 1.4 SW 20 26 11 14 1020.4 1020.2 0.0
08/12:30am 19.1 18.3 17.1 88 1.2 SW 17 20 9 11 1020.2 1020.0 0.0
08/12:00am 19.1 18.3 17.1 88 1.2 SW 17 20 9 11 1020.1 1019.9 0.0
 
Date/Time
EDT
Temp
°C
App
Temp
°C
Dew
Point
Rel
Hum
%
Delta-T
°C
Wind Press
QNH
hPa
Press
MSL
hPa
Rain
since 9 am
mm
Dir
 
Spd
km/h
Gust
km/h
Spd
kts
Gust
kts
07/11:30pm 19.3 18.6 17.3 88 1.2 SW 17 20 9 11 1020.0 1019.8 0.0
07/11:04pm 19.2 18.5 17.3 89 1.2 SW 17 19 9 10 1019.9 1019.7 0.0
07/11:00pm 19.2 18.9 17.3 89 1.2 SW 15 19 8 10 1019.9 1019.7 0.0
07/10:30pm 19.5 19.5 17.1 86 1.5 S 13 15 7 8 1019.8 1019.6 0.0
07/10:00pm 19.9 19.5 17.1 84 1.7 S 15 19 8 10 1019.8 1019.6 0.0
07/09:30pm 20.2 18.9 16.8 81 2.1 S 19 24 10 13 1019.5 1019.3 0.0
07/09:00pm 20.8 19.3 16.8 78 2.4 SSW 20 28 11 15 1018.9 1018.7 0.0
07/08:30pm 21.9 19.8 15.3 66 3.9 S 20 26 11 14 1018.2 1017.9 0.0
07/08:00pm 23.7 19.9 12.4 49 6.5 SSW 24 33 13 18 1017.7 1017.4 0.0
07/07:30pm 24.5 19.1 10.8 42 7.7 SSW 30 37 16 20 1017.2 1016.9 0.0
07/07:00pm 24.7 18.6 9.8 39 8.2 SSW 32 43 17 23 1016.9 1016.6 0.0
07/06:30pm 25.3 20.0 12.5 45 7.4 SSW 32 39 17 21 1016.5 1016.2 0.0
07/06:00pm 25.4 20.9 14.8 52 6.4 SSW 32 43 17 23 1016.2 1015.9 0.0
07/05:30pm 26.0 23.4 16.0 54 6.1 S 24 32 13 17 1015.9 1015.6 0.0
07/05:00pm 27.0 23.7 16.0 51 6.8 S 28 35 15 19 1015.8 1015.5 0.0
07/04:30pm 27.6 24.4 15.3 47 7.5 S 26 32 14 17 1015.4 1015.1 0.0
07/04:00pm 27.1 24.3 16.4 52 6.6 S 26 32 14 17 1015.4 1015.1 0.0
07/03:30pm 27.3 24.5 17.2 54 6.3 S 28 35 15 19 1015.6 1015.3 0.0
07/03:00pm 27.4 24.4 16.7 52 6.7 S 28 35 15 19 1015.7 1015.4 0.0
07/02:30pm 28.7 26.4 16.6 48 7.6 S 24 30 13 16 1016.0 1015.7 0.0
07/02:00pm 29.0 27.4 17.5 49 7.3 S 22 32 12 17 1016.1 1015.8 0.0
07/01:30pm 28.9 28.2 16.5 47 7.7 S 15 20 8 11 1016.1 1015.8 0.0
07/01:00pm 27.6 26.5 17.2 53 6.5 S 19 22 10 12 1016.4 1016.1 0.0
07/12:30pm 27.4 26.6 18.1 57 5.9 S 19 24 10 13 1016.7 1016.4 0.0
07/12:00pm 27.4 26.6 17.0 53 6.5 S 17 20 9 11 1016.8 1016.5 0.0
07/11:30am 27.1 26.3 17.0 54 6.3 S 17 24 9 13 1017.0 1016.7 0.0

Other Formats:

Comma delimited format used in spreadsheet applications
http://www.bom.gov.au/fwo/IDV60801/IDV60801.95866.axf

JavaScript Object Notation format (JSON) in row-major order
http://www.bom.gov.au/fwo/IDV60801/IDV60801.95866.json